sensor_id;sensor_type;location;lat;lon;timestamp;P1;durP1;ratioP1;P2;durP2;ratioP2
32228;SDS011;18717;48.034;11.186;2023-03-24T00:00:10;14.15;;;12.95;;
32228;SDS011;18717;48.034;11.186;2023-03-24T00:02:40;13.75;;;12.65;;
32228;SDS011;18717;48.034;11.186;2023-03-24T00:05:08;14.25;;;12.98;;
32228;SDS011;18717;48.034;11.186;2023-03-24T00:07:37;14.95;;;13.75;;
32228;SDS011;18717;48.034;11.186;2023-03-24T00:10:05;14.27;;;13.18;;
32228;SDS011;18717;48.034;11.186;2023-03-24T00:12:36;13.30;;;12.07;;
32228;SDS011;18717;48.034;11.186;2023-03-24T00:15:05;13.52;;;12.38;;
32228;SDS011;18717;48.034;11.186;2023-03-24T00:17:34;13.30;;;12.40;;
32228;SDS011;18717;48.034;11.186;2023-03-24T00:20:02;13.43;;;12.32;;
32228;SDS011;18717;48.034;11.186;2023-03-24T00:22:37;13.25;;;12.20;;
32228;SDS011;18717;48.034;11.186;2023-03-24T00:25:08;13.15;;;12.15;;
32228;SDS011;18717;48.034;11.186;2023-03-24T00:27:37;12.98;;;11.90;;
32228;SDS011;18717;48.034;11.186;2023-03-24T00:30:06;13.63;;;12.40;;
32228;SDS011;18717;48.034;11.186;2023-03-24T00:32:36;13.35;;;12.32;;
32228;SDS011;18717;48.034;11.186;2023-03-24T00:35:05;12.50;;;11.57;;
32228;SDS011;18717;48.034;11.186;2023-03-24T00:37:34;13.32;;;12.15;;
32228;SDS011;18717;48.034;11.186;2023-03-24T00:40:03;13.32;;;12.23;;
32228;SDS011;18717;48.034;11.186;2023-03-24T00:42:33;13.50;;;12.20;;
32228;SDS011;18717;48.034;11.186;2023-03-24T00:45:03;14.90;;;13.73;;
32228;SDS011;18717;48.034;11.186;2023-03-24T00:47:32;12.80;;;11.90;;
32228;SDS011;18717;48.034;11.186;2023-03-24T00:50:02;12.95;;;12.00;;
32228;SDS011;18717;48.034;11.186;2023-03-24T00:52:30;13.23;;;12.07;;
32228;SDS011;18717;48.034;11.186;2023-03-24T00:55:00;12.63;;;11.63;;
32228;SDS011;18717;48.034;11.186;2023-03-24T00:57:29;12.38;;;11.50;;
32228;SDS011;18717;48.034;11.186;2023-03-24T01:00:00;13.63;;;12.53;;
32228;SDS011;18717;48.034;11.186;2023-03-24T01:02:37;13.88;;;12.57;;
32228;SDS011;18717;48.034;11.186;2023-03-24T01:05:05;12.82;;;11.90;;
32228;SDS011;18717;48.034;11.186;2023-03-24T01:07:34;13.68;;;12.48;;
32228;SDS011;18717;48.034;11.186;2023-03-24T01:10:02;13.85;;;12.75;;
32228;SDS011;18717;48.034;11.186;2023-03-24T01:12:31;14.55;;;13.20;;
32228;SDS011;18717;48.034;11.186;2023-03-24T01:15:00;16.00;;;14.38;;
32228;SDS011;18717;48.034;11.186;2023-03-24T01:17:30;15.73;;;14.23;;
32228;SDS011;18717;48.034;11.186;2023-03-24T01:20:01;15.68;;;14.15;;
32228;SDS011;18717;48.034;11.186;2023-03-24T01:22:33;14.15;;;13.15;;
32228;SDS011;18717;48.034;11.186;2023-03-24T01:25:03;14.88;;;13.43;;
32228;SDS011;18717;48.034;11.186;2023-03-24T01:27:30;15.50;;;14.18;;
32228;SDS011;18717;48.034;11.186;2023-03-24T01:29:58;14.10;;;12.93;;
32228;SDS011;18717;48.034;11.186;2023-03-24T01:32:27;15.40;;;13.98;;
32228;SDS011;18717;48.034;11.186;2023-03-24T01:34:54;15.15;;;13.55;;
32228;SDS011;18717;48.034;11.186;2023-03-24T01:37:23;15.68;;;14.07;;
32228;SDS011;18717;48.034;11.186;2023-03-24T01:39:51;15.63;;;14.07;;
32228;SDS011;18717;48.034;11.186;2023-03-24T01:42:20;14.65;;;13.45;;
32228;SDS011;18717;48.034;11.186;2023-03-24T01:44:52;15.23;;;13.93;;
32228;SDS011;18717;48.034;11.186;2023-03-24T01:47:22;14.15;;;12.70;;
32228;SDS011;18717;48.034;11.186;2023-03-24T01:49:50;14.68;;;13.38;;
32228;SDS011;18717;48.034;11.186;2023-03-24T01:52:20;15.00;;;13.63;;
32228;SDS011;18717;48.034;11.186;2023-03-24T01:54:51;14.98;;;13.48;;
32228;SDS011;18717;48.034;11.186;2023-03-24T01:57:22;15.35;;;13.80;;
32228;SDS011;18717;48.034;11.186;2023-03-24T01:59:53;15.05;;;13.65;;
32228;SDS011;18717;48.034;11.186;2023-03-24T02:02:22;17.52;;;13.50;;
32228;SDS011;18717;48.034;11.186;2023-03-24T02:04:51;14.18;;;12.88;;
32228;SDS011;18717;48.034;11.186;2023-03-24T02:07:24;14.48;;;13.00;;
32228;SDS011;18717;48.034;11.186;2023-03-24T02:09:57;18.45;;;14.05;;
32228;SDS011;18717;48.034;11.186;2023-03-24T02:12:25;15.30;;;13.95;;
32228;SDS011;18717;48.034;11.186;2023-03-24T02:14:53;15.88;;;14.32;;
32228;SDS011;18717;48.034;11.186;2023-03-24T02:17:25;15.48;;;14.05;;
32228;SDS011;18717;48.034;11.186;2023-03-24T02:20:11;15.32;;;13.93;;
32228;SDS011;18717;48.034;11.186;2023-03-24T02:26:02;15.85;;;14.23;;
32228;SDS011;18717;48.034;11.186;2023-03-24T02:28:45;14.02;;;12.85;;
32228;SDS011;18717;48.034;11.186;2023-03-24T02:31:25;13.80;;;12.65;;
32228;SDS011;18717;48.034;11.186;2023-03-24T02:37:08;15.13;;;13.57;;
32228;SDS011;18717;48.034;11.186;2023-03-24T02:39:53;14.25;;;13.05;;
32228;SDS011;18717;48.034;11.186;2023-03-24T02:42:42;15.35;;;13.82;;
32228;SDS011;18717;48.034;11.186;2023-03-24T02:45:18;15.10;;;13.75;;
32228;SDS011;18717;48.034;11.186;2023-03-24T02:47:55;14.25;;;13.15;;
32228;SDS011;18717;48.034;11.186;2023-03-24T02:50:35;14.32;;;13.13;;
32228;SDS011;18717;48.034;11.186;2023-03-24T02:53:08;14.38;;;13.07;;
32228;SDS011;18717;48.034;11.186;2023-03-24T02:55:42;14.07;;;12.85;;
32228;SDS011;18717;48.034;11.186;2023-03-24T02:58:13;13.10;;;12.10;;
32228;SDS011;18717;48.034;11.186;2023-03-24T03:00:43;14.02;;;12.82;;
32228;SDS011;18717;48.034;11.186;2023-03-24T03:03:15;14.30;;;12.93;;
32228;SDS011;18717;48.034;11.186;2023-03-24T03:08:14;14.30;;;13.10;;
32228;SDS011;18717;48.034;11.186;2023-03-24T03:10:47;13.07;;;11.98;;
32228;SDS011;18717;48.034;11.186;2023-03-24T03:13:17;14.38;;;13.00;;
32228;SDS011;18717;48.034;11.186;2023-03-24T03:15:49;14.25;;;13.05;;
32228;SDS011;18717;48.034;11.186;2023-03-24T03:18:19;15.20;;;14.00;;
32228;SDS011;18717;48.034;11.186;2023-03-24T03:20:49;15.40;;;13.93;;
32228;SDS011;18717;48.034;11.186;2023-03-24T03:23:19;15.40;;;14.07;;
32228;SDS011;18717;48.034;11.186;2023-03-24T03:25:52;14.15;;;13.13;;
32228;SDS011;18717;48.034;11.186;2023-03-24T03:28:22;14.27;;;13.18;;
32228;SDS011;18717;48.034;11.186;2023-03-24T03:30:55;14.43;;;13.25;;
32228;SDS011;18717;48.034;11.186;2023-03-24T03:33:25;14.27;;;12.88;;
32228;SDS011;18717;48.034;11.186;2023-03-24T03:35:57;14.75;;;13.48;;
32228;SDS011;18717;48.034;11.186;2023-03-24T03:38:30;13.80;;;12.55;;
32228;SDS011;18717;48.034;11.186;2023-03-24T03:41:05;13.13;;;12.13;;
32228;SDS011;18717;48.034;11.186;2023-03-24T03:43:33;14.15;;;12.95;;
32228;SDS011;18717;48.034;11.186;2023-03-24T03:46:02;13.23;;;12.25;;
32228;SDS011;18717;48.034;11.186;2023-03-24T03:48:31;13.63;;;12.60;;
32228;SDS011;18717;48.034;11.186;2023-03-24T03:50:59;13.63;;;12.52;;
32228;SDS011;18717;48.034;11.186;2023-03-24T03:53:40;14.10;;;12.88;;
32228;SDS011;18717;48.034;11.186;2023-03-24T03:56:12;14.20;;;12.90;;
32228;SDS011;18717;48.034;11.186;2023-03-24T03:58:43;12.73;;;11.73;;
32228;SDS011;18717;48.034;11.186;2023-03-24T04:01:12;12.75;;;11.77;;
32228;SDS011;18717;48.034;11.186;2023-03-24T04:06:38;13.95;;;12.75;;
32228;SDS011;18717;48.034;11.186;2023-03-24T04:09:14;13.88;;;12.75;;
32228;SDS011;18717;48.034;11.186;2023-03-24T04:11:53;14.43;;;12.10;;
32228;SDS011;18717;48.034;11.186;2023-03-24T04:14:33;13.77;;;12.77;;
32228;SDS011;18717;48.034;11.186;2023-03-24T04:17:24;15.18;;;12.65;;
32228;SDS011;18717;48.034;11.186;2023-03-24T04:19:59;14.88;;;13.05;;
32228;SDS011;18717;48.034;11.186;2023-03-24T04:22:35;14.10;;;12.93;;
32228;SDS011;18717;48.034;11.186;2023-03-24T04:25:11;13.68;;;12.55;;
32228;SDS011;18717;48.034;11.186;2023-03-24T04:27:44;15.15;;;13.85;;
32228;SDS011;18717;48.034;11.186;2023-03-24T04:30:15;13.63;;;12.45;;
32228;SDS011;18717;48.034;11.186;2023-03-24T04:32:48;14.02;;;12.93;;
32228;SDS011;18717;48.034;11.186;2023-03-24T04:35:20;14.57;;;13.48;;
32228;SDS011;18717;48.034;11.186;2023-03-24T04:37:57;13.77;;;12.38;;
32228;SDS011;18717;48.034;11.186;2023-03-24T04:40:29;14.00;;;12.73;;
32228;SDS011;18717;48.034;11.186;2023-03-24T04:43:00;14.00;;;12.70;;
32228;SDS011;18717;48.034;11.186;2023-03-24T04:45:30;14.50;;;13.20;;
32228;SDS011;18717;48.034;11.186;2023-03-24T04:48:01;13.80;;;12.70;;
32228;SDS011;18717;48.034;11.186;2023-03-24T04:50:32;14.80;;;13.38;;
32228;SDS011;18717;48.034;11.186;2023-03-24T04:53:02;14.50;;;13.30;;
32228;SDS011;18717;48.034;11.186;2023-03-24T04:55:46;14.48;;;13.15;;
32228;SDS011;18717;48.034;11.186;2023-03-24T04:58:21;13.90;;;12.65;;
32228;SDS011;18717;48.034;11.186;2023-03-24T05:00:49;14.00;;;12.82;;
32228;SDS011;18717;48.034;11.186;2023-03-24T05:03:17;13.88;;;12.75;;
32228;SDS011;18717;48.034;11.186;2023-03-24T05:05:46;14.75;;;13.40;;
32228;SDS011;18717;48.034;11.186;2023-03-24T05:08:15;14.98;;;13.82;;
32228;SDS011;18717;48.034;11.186;2023-03-24T05:10:44;13.80;;;12.55;;
32228;SDS011;18717;48.034;11.186;2023-03-24T05:13:12;12.90;;;11.60;;
32228;SDS011;18717;48.034;11.186;2023-03-24T05:15:42;14.23;;;13.05;;
32228;SDS011;18717;48.034;11.186;2023-03-24T05:18:10;13.98;;;12.77;;
32228;SDS011;18717;48.034;11.186;2023-03-24T05:20:38;14.57;;;13.05;;
32228;SDS011;18717;48.034;11.186;2023-03-24T05:23:05;14.13;;;12.82;;
32228;SDS011;18717;48.034;11.186;2023-03-24T05:25:33;15.77;;;14.38;;
32228;SDS011;18717;48.034;11.186;2023-03-24T05:28:01;15.02;;;13.82;;
32228;SDS011;18717;48.034;11.186;2023-03-24T05:30:35;14.20;;;13.02;;
32228;SDS011;18717;48.034;11.186;2023-03-24T05:33:23;14.82;;;13.57;;
32228;SDS011;18717;48.034;11.186;2023-03-24T05:35:50;14.10;;;12.88;;
32228;SDS011;18717;48.034;11.186;2023-03-24T05:38:18;14.77;;;13.50;;
32228;SDS011;18717;48.034;11.186;2023-03-24T05:40:46;14.27;;;12.98;;
32228;SDS011;18717;48.034;11.186;2023-03-24T05:43:14;14.13;;;13.00;;
32228;SDS011;18717;48.034;11.186;2023-03-24T05:45:42;14.65;;;13.30;;
32228;SDS011;18717;48.034;11.186;2023-03-24T05:48:11;14.32;;;13.00;;
32228;SDS011;18717;48.034;11.186;2023-03-24T05:50:39;13.65;;;12.65;;
32228;SDS011;18717;48.034;11.186;2023-03-24T05:53:06;14.95;;;13.68;;
32228;SDS011;18717;48.034;11.186;2023-03-24T05:55:34;15.13;;;13.38;;
32228;SDS011;18717;48.034;11.186;2023-03-24T05:58:02;15.18;;;13.77;;
32228;SDS011;18717;48.034;11.186;2023-03-24T06:00:30;14.65;;;13.18;;
32228;SDS011;18717;48.034;11.186;2023-03-24T06:02:58;15.02;;;13.25;;
32228;SDS011;18717;48.034;11.186;2023-03-24T06:05:31;15.07;;;13.63;;
32228;SDS011;18717;48.034;11.186;2023-03-24T06:07:59;14.30;;;13.10;;
32228;SDS011;18717;48.034;11.186;2023-03-24T06:10:27;13.50;;;12.48;;
32228;SDS011;18717;48.034;11.186;2023-03-24T06:12:55;14.60;;;13.38;;
32228;SDS011;18717;48.034;11.186;2023-03-24T06:15:23;14.50;;;13.40;;
32228;SDS011;18717;48.034;11.186;2023-03-24T06:17:53;14.88;;;13.48;;
32228;SDS011;18717;48.034;11.186;2023-03-24T06:20:21;14.98;;;13.52;;
32228;SDS011;18717;48.034;11.186;2023-03-24T06:22:50;14.98;;;13.60;;
32228;SDS011;18717;48.034;11.186;2023-03-24T06:25:19;19.63;;;14.98;;
32228;SDS011;18717;48.034;11.186;2023-03-24T06:27:47;15.35;;;13.48;;
32228;SDS011;18717;48.034;11.186;2023-03-24T06:30:15;15.23;;;13.93;;
32228;SDS011;18717;48.034;11.186;2023-03-24T06:32:44;15.13;;;13.75;;
32228;SDS011;18717;48.034;11.186;2023-03-24T06:35:12;15.73;;;13.27;;
32228;SDS011;18717;48.034;11.186;2023-03-24T06:37:41;15.05;;;13.50;;
32228;SDS011;18717;48.034;11.186;2023-03-24T06:40:11;14.18;;;13.07;;
32228;SDS011;18717;48.034;11.186;2023-03-24T06:42:41;12.90;;;11.73;;
32228;SDS011;18717;48.034;11.186;2023-03-24T06:45:09;14.13;;;12.98;;
32228;SDS011;18717;48.034;11.186;2023-03-24T06:47:37;15.07;;;13.88;;
32228;SDS011;18717;48.034;11.186;2023-03-24T06:50:05;17.73;;;16.13;;
32228;SDS011;18717;48.034;11.186;2023-03-24T06:52:33;16.83;;;15.43;;
32228;SDS011;18717;48.034;11.186;2023-03-24T06:55:01;15.88;;;14.57;;
32228;SDS011;18717;48.034;11.186;2023-03-24T06:57:31;15.27;;;13.98;;
32228;SDS011;18717;48.034;11.186;2023-03-24T06:59:59;17.90;;;15.07;;
32228;SDS011;18717;48.034;11.186;2023-03-24T07:02:26;23.52;;;21.23;;
32228;SDS011;18717;48.034;11.186;2023-03-24T07:04:59;18.83;;;16.92;;
32228;SDS011;18717;48.034;11.186;2023-03-24T07:07:31;18.20;;;16.40;;
32228;SDS011;18717;48.034;11.186;2023-03-24T07:10:02;14.43;;;13.13;;
32228;SDS011;18717;48.034;11.186;2023-03-24T07:12:32;15.75;;;14.20;;
32228;SDS011;18717;48.034;11.186;2023-03-24T07:15:01;15.63;;;14.35;;
32228;SDS011;18717;48.034;11.186;2023-03-24T07:17:30;15.45;;;14.23;;
32228;SDS011;18717;48.034;11.186;2023-03-24T07:19:58;14.65;;;13.52;;
32228;SDS011;18717;48.034;11.186;2023-03-24T07:22:25;14.88;;;13.48;;
32228;SDS011;18717;48.034;11.186;2023-03-24T07:24:53;17.48;;;15.98;;
32228;SDS011;18717;48.034;11.186;2023-03-24T07:27:23;16.50;;;14.77;;
32228;SDS011;18717;48.034;11.186;2023-03-24T07:29:52;14.23;;;13.02;;
32228;SDS011;18717;48.034;11.186;2023-03-24T07:32:20;15.18;;;13.88;;
32228;SDS011;18717;48.034;11.186;2023-03-24T07:34:47;13.60;;;12.60;;
32228;SDS011;18717;48.034;11.186;2023-03-24T07:37:15;15.65;;;13.68;;
32228;SDS011;18717;48.034;11.186;2023-03-24T07:39:43;15.32;;;13.82;;
32228;SDS011;18717;48.034;11.186;2023-03-24T07:42:10;21.80;;;19.90;;
32228;SDS011;18717;48.034;11.186;2023-03-24T07:44:38;15.80;;;14.43;;
32228;SDS011;18717;48.034;11.186;2023-03-24T07:47:07;14.30;;;13.02;;
32228;SDS011;18717;48.034;11.186;2023-03-24T07:49:36;14.02;;;12.88;;
32228;SDS011;18717;48.034;11.186;2023-03-24T07:52:04;17.23;;;15.68;;
32228;SDS011;18717;48.034;11.186;2023-03-24T07:54:32;15.88;;;14.45;;
32228;SDS011;18717;48.034;11.186;2023-03-24T07:57:00;14.13;;;12.85;;
32228;SDS011;18717;48.034;11.186;2023-03-24T07:59:28;13.50;;;12.32;;
32228;SDS011;18717;48.034;11.186;2023-03-24T08:01:55;14.25;;;13.15;;
32228;SDS011;18717;48.034;11.186;2023-03-24T08:04:26;12.75;;;11.77;;
32228;SDS011;18717;48.034;11.186;2023-03-24T08:06:54;16.85;;;13.15;;
32228;SDS011;18717;48.034;11.186;2023-03-24T08:09:22;13.77;;;12.77;;
32228;SDS011;18717;48.034;11.186;2023-03-24T08:11:50;14.77;;;13.50;;
32228;SDS011;18717;48.034;11.186;2023-03-24T08:14:17;15.88;;;14.38;;
32228;SDS011;18717;48.034;11.186;2023-03-24T08:16:45;17.83;;;13.18;;
32228;SDS011;18717;48.034;11.186;2023-03-24T08:19:13;12.70;;;11.77;;
32228;SDS011;18717;48.034;11.186;2023-03-24T08:21:42;13.55;;;12.35;;
32228;SDS011;18717;48.034;11.186;2023-03-24T08:24:10;13.95;;;12.82;;
32228;SDS011;18717;48.034;11.186;2023-03-24T08:26:38;13.32;;;12.40;;
32228;SDS011;18717;48.034;11.186;2023-03-24T08:29:07;13.02;;;12.23;;
32228;SDS011;18717;48.034;11.186;2023-03-24T08:31:35;14.07;;;13.10;;
32228;SDS011;18717;48.034;11.186;2023-03-24T08:34:03;13.90;;;12.90;;
32228;SDS011;18717;48.034;11.186;2023-03-24T08:36:32;14.52;;;13.27;;
32228;SDS011;18717;48.034;11.186;2023-03-24T08:39:01;14.73;;;13.43;;
32228;SDS011;18717;48.034;11.186;2023-03-24T08:41:31;13.50;;;12.60;;
32228;SDS011;18717;48.034;11.186;2023-03-24T08:44:01;13.38;;;12.20;;
32228;SDS011;18717;48.034;11.186;2023-03-24T08:46:32;12.40;;;11.50;;
32228;SDS011;18717;48.034;11.186;2023-03-24T08:49:00;13.50;;;12.43;;
32228;SDS011;18717;48.034;11.186;2023-03-24T08:51:28;12.90;;;11.80;;
32228;SDS011;18717;48.034;11.186;2023-03-24T08:53:56;13.45;;;12.50;;
32228;SDS011;18717;48.034;11.186;2023-03-24T08:56:26;12.50;;;11.55;;
32228;SDS011;18717;48.034;11.186;2023-03-24T08:58:54;12.50;;;11.50;;
32228;SDS011;18717;48.034;11.186;2023-03-24T09:01:23;12.48;;;11.43;;
32228;SDS011;18717;48.034;11.186;2023-03-24T09:03:50;11.57;;;10.68;;
32228;SDS011;18717;48.034;11.186;2023-03-24T09:06:18;12.23;;;11.43;;
32228;SDS011;18717;48.034;11.186;2023-03-24T09:08:46;12.40;;;11.40;;
32228;SDS011;18717;48.034;11.186;2023-03-24T09:11:14;11.85;;;11.15;;
32228;SDS011;18717;48.034;11.186;2023-03-24T09:13:45;11.48;;;10.77;;
32228;SDS011;18717;48.034;11.186;2023-03-24T09:16:13;10.73;;;10.13;;
32228;SDS011;18717;48.034;11.186;2023-03-24T09:18:41;11.00;;;10.40;;
32228;SDS011;18717;48.034;11.186;2023-03-24T09:21:09;11.80;;;11.10;;
32228;SDS011;18717;48.034;11.186;2023-03-24T09:23:37;11.70;;;10.93;;
32228;SDS011;18717;48.034;11.186;2023-03-24T09:26:04;11.80;;;10.90;;
32228;SDS011;18717;48.034;11.186;2023-03-24T09:28:32;11.43;;;10.73;;
32228;SDS011;18717;48.034;11.186;2023-03-24T09:31:03;12.32;;;11.50;;
32228;SDS011;18717;48.034;11.186;2023-03-24T09:33:32;11.88;;;11.02;;
32228;SDS011;18717;48.034;11.186;2023-03-24T09:36:00;10.98;;;10.27;;
32228;SDS011;18717;48.034;11.186;2023-03-24T09:38:29;10.95;;;10.38;;
32228;SDS011;18717;48.034;11.186;2023-03-24T09:41:00;11.60;;;10.90;;
32228;SDS011;18717;48.034;11.186;2023-03-24T09:43:30;12.05;;;11.30;;
32228;SDS011;18717;48.034;11.186;2023-03-24T09:46:05;11.40;;;10.63;;
32228;SDS011;18717;48.034;11.186;2023-03-24T09:48:37;12.63;;;11.18;;
32228;SDS011;18717;48.034;11.186;2023-03-24T09:51:08;12.82;;;11.93;;
32228;SDS011;18717;48.034;11.186;2023-03-24T09:53:38;12.05;;;11.15;;
32228;SDS011;18717;48.034;11.186;2023-03-24T09:58:38;11.75;;;10.93;;
32228;SDS011;18717;48.034;11.186;2023-03-24T10:01:11;11.77;;;10.98;;
32228;SDS011;18717;48.034;11.186;2023-03-24T10:03:40;12.57;;;11.73;;
32228;SDS011;18717;48.034;11.186;2023-03-24T10:06:09;11.52;;;10.82;;
32228;SDS011;18717;48.034;11.186;2023-03-24T10:08:40;12.38;;;11.50;;
32228;SDS011;18717;48.034;11.186;2023-03-24T10:11:12;12.27;;;11.48;;
32228;SDS011;18717;48.034;11.186;2023-03-24T10:13:49;11.88;;;10.98;;
32228;SDS011;18717;48.034;11.186;2023-03-24T10:16:24;11.57;;;10.88;;
32228;SDS011;18717;48.034;11.186;2023-03-24T10:18:56;12.00;;;11.23;;
32228;SDS011;18717;48.034;11.186;2023-03-24T10:21:26;12.00;;;10.90;;
32228;SDS011;18717;48.034;11.186;2023-03-24T10:23:56;11.25;;;10.55;;
32228;SDS011;18717;48.034;11.186;2023-03-24T10:26:32;12.00;;;11.13;;
32228;SDS011;18717;48.034;11.186;2023-03-24T10:29:08;11.10;;;10.50;;
32228;SDS011;18717;48.034;11.186;2023-03-24T10:31:47;13.23;;;12.32;;
32228;SDS011;18717;48.034;11.186;2023-03-24T10:34:17;11.68;;;11.00;;
32228;SDS011;18717;48.034;11.186;2023-03-24T10:36:45;11.60;;;10.80;;
32228;SDS011;18717;48.034;11.186;2023-03-24T10:39:13;11.48;;;10.77;;
32228;SDS011;18717;48.034;11.186;2023-03-24T10:41:49;10.75;;;10.05;;
32228;SDS011;18717;48.034;11.186;2023-03-24T10:44:18;10.70;;;10.05;;
32228;SDS011;18717;48.034;11.186;2023-03-24T10:46:48;11.00;;;10.40;;
32228;SDS011;18717;48.034;11.186;2023-03-24T10:49:18;12.02;;;11.20;;
32228;SDS011;18717;48.034;11.186;2023-03-24T10:51:47;11.02;;;10.43;;
32228;SDS011;18717;48.034;11.186;2023-03-24T10:54:17;11.55;;;10.75;;
32228;SDS011;18717;48.034;11.186;2023-03-24T10:56:47;11.57;;;10.77;;
32228;SDS011;18717;48.034;11.186;2023-03-24T10:59:17;11.77;;;10.88;;
32228;SDS011;18717;48.034;11.186;2023-03-24T11:01:47;11.18;;;10.52;;
32228;SDS011;18717;48.034;11.186;2023-03-24T11:04:17;12.30;;;11.30;;
32228;SDS011;18717;48.034;11.186;2023-03-24T11:06:56;12.55;;;11.65;;
32228;SDS011;18717;48.034;11.186;2023-03-24T11:09:29;12.48;;;11.65;;
32228;SDS011;18717;48.034;11.186;2023-03-24T11:12:01;13.57;;;12.45;;
32228;SDS011;18717;48.034;11.186;2023-03-24T11:14:29;12.52;;;11.70;;
32228;SDS011;18717;48.034;11.186;2023-03-24T11:17:02;11.13;;;10.40;;
32228;SDS011;18717;48.034;11.186;2023-03-24T11:19:36;19.88;;;17.73;;
32228;SDS011;18717;48.034;11.186;2023-03-24T11:22:04;26.60;;;20.55;;
32228;SDS011;18717;48.034;11.186;2023-03-24T11:24:34;13.60;;;12.52;;
32228;SDS011;18717;48.034;11.186;2023-03-24T11:27:03;12.38;;;11.57;;
32228;SDS011;18717;48.034;11.186;2023-03-24T11:29:32;12.05;;;11.25;;
32228;SDS011;18717;48.034;11.186;2023-03-24T11:32:02;11.27;;;10.60;;
32228;SDS011;18717;48.034;11.186;2023-03-24T11:34:39;13.52;;;12.50;;
32228;SDS011;18717;48.034;11.186;2023-03-24T11:37:10;12.30;;;11.55;;
32228;SDS011;18717;48.034;11.186;2023-03-24T11:39:40;12.18;;;11.38;;
32228;SDS011;18717;48.034;11.186;2023-03-24T11:42:14;12.48;;;11.77;;
32228;SDS011;18717;48.034;11.186;2023-03-24T11:44:46;11.48;;;10.88;;
32228;SDS011;18717;48.034;11.186;2023-03-24T11:47:18;11.98;;;11.13;;
32228;SDS011;18717;48.034;11.186;2023-03-24T11:49:51;11.75;;;10.95;;
32228;SDS011;18717;48.034;11.186;2023-03-24T11:52:25;12.20;;;11.05;;
32228;SDS011;18717;48.034;11.186;2023-03-24T11:54:54;11.38;;;10.77;;
32228;SDS011;18717;48.034;11.186;2023-03-24T11:57:25;11.48;;;10.75;;
32228;SDS011;18717;48.034;11.186;2023-03-24T12:00:05;11.50;;;10.93;;
32228;SDS011;18717;48.034;11.186;2023-03-24T12:02:41;10.48;;;9.98;;
32228;SDS011;18717;48.034;11.186;2023-03-24T12:05:19;12.40;;;11.50;;
32228;SDS011;18717;48.034;11.186;2023-03-24T12:07:57;11.18;;;10.57;;
32228;SDS011;18717;48.034;11.186;2023-03-24T12:10:33;11.55;;;10.85;;
32228;SDS011;18717;48.034;11.186;2023-03-24T12:13:06;11.40;;;10.80;;
32228;SDS011;18717;48.034;11.186;2023-03-24T12:15:55;11.60;;;11.00;;
32228;SDS011;18717;48.034;11.186;2023-03-24T12:18:34;11.75;;;11.05;;
32228;SDS011;18717;48.034;11.186;2023-03-24T12:21:08;11.70;;;10.90;;
32228;SDS011;18717;48.034;11.186;2023-03-24T12:23:42;12.00;;;11.30;;
32228;SDS011;18717;48.034;11.186;2023-03-24T12:26:17;12.93;;;12.02;;
32228;SDS011;18717;48.034;11.186;2023-03-24T12:31:57;12.35;;;11.52;;
32228;SDS011;18717;48.034;11.186;2023-03-24T12:34:40;12.13;;;11.27;;
32228;SDS011;18717;48.034;11.186;2023-03-24T12:37:20;11.85;;;11.15;;
32228;SDS011;18717;48.034;11.186;2023-03-24T12:39:53;12.32;;;11.55;;
32228;SDS011;18717;48.034;11.186;2023-03-24T12:42:29;11.73;;;11.02;;
32228;SDS011;18717;48.034;11.186;2023-03-24T12:47:43;12.60;;;11.90;;
32228;SDS011;18717;48.034;11.186;2023-03-24T12:50:33;13.23;;;12.43;;
32228;SDS011;18717;48.034;11.186;2023-03-24T12:53:18;12.25;;;11.55;;
32228;SDS011;18717;48.034;11.186;2023-03-24T12:55:54;12.15;;;11.45;;
32228;SDS011;18717;48.034;11.186;2023-03-24T12:58:25;11.90;;;11.10;;
32228;SDS011;18717;48.034;11.186;2023-03-24T13:01:00;12.15;;;11.45;;
32228;SDS011;18717;48.034;11.186;2023-03-24T13:03:32;11.85;;;11.15;;
32228;SDS011;18717;48.034;11.186;2023-03-24T13:06:10;11.07;;;10.48;;
32228;SDS011;18717;48.034;11.186;2023-03-24T13:08:44;11.00;;;10.43;;
32228;SDS011;18717;48.034;11.186;2023-03-24T13:11:15;11.20;;;10.50;;
32228;SDS011;18717;48.034;11.186;2023-03-24T13:13:58;9.98;;;9.48;;
32228;SDS011;18717;48.034;11.186;2023-03-24T13:16:28;11.02;;;10.40;;
32228;SDS011;18717;48.034;11.186;2023-03-24T13:18:57;10.70;;;10.18;;
32228;SDS011;18717;48.034;11.186;2023-03-24T13:21:28;10.38;;;9.75;;
32228;SDS011;18717;48.034;11.186;2023-03-24T13:24:01;10.15;;;9.55;;
32228;SDS011;18717;48.034;11.186;2023-03-24T13:26:36;9.68;;;9.18;;
32228;SDS011;18717;48.034;11.186;2023-03-24T13:29:12;10.07;;;9.57;;
32228;SDS011;18717;48.034;11.186;2023-03-24T13:31:48;10.45;;;9.82;;
32228;SDS011;18717;48.034;11.186;2023-03-24T13:34:21;12.77;;;12.07;;
32228;SDS011;18717;48.034;11.186;2023-03-24T13:36:53;17.75;;;16.23;;
32228;SDS011;18717;48.034;11.186;2023-03-24T13:39:24;11.32;;;10.80;;
32228;SDS011;18717;48.034;11.186;2023-03-24T13:41:53;10.60;;;10.10;;
32228;SDS011;18717;48.034;11.186;2023-03-24T13:44:23;10.55;;;10.02;;
32228;SDS011;18717;48.034;11.186;2023-03-24T13:46:58;10.63;;;10.13;;
32228;SDS011;18717;48.034;11.186;2023-03-24T13:49:30;10.38;;;9.80;;
32228;SDS011;18717;48.034;11.186;2023-03-24T13:52:02;11.00;;;10.30;;
32228;SDS011;18717;48.034;11.186;2023-03-24T13:54:33;11.05;;;10.20;;
32228;SDS011;18717;48.034;11.186;2023-03-24T13:57:03;11.65;;;10.77;;
32228;SDS011;18717;48.034;11.186;2023-03-24T13:59:38;10.68;;;10.18;;
32228;SDS011;18717;48.034;11.186;2023-03-24T14:02:10;11.18;;;10.27;;
32228;SDS011;18717;48.034;11.186;2023-03-24T14:04:45;10.82;;;10.23;;
32228;SDS011;18717;48.034;11.186;2023-03-24T14:07:29;11.15;;;10.55;;
32228;SDS011;18717;48.034;11.186;2023-03-24T14:13:17;9.40;;;8.93;;
32228;SDS011;18717;48.034;11.186;2023-03-24T14:15:47;9.80;;;9.32;;
32228;SDS011;18717;48.034;11.186;2023-03-24T14:21:06;9.60;;;9.20;;
32228;SDS011;18717;48.034;11.186;2023-03-24T14:23:36;9.25;;;8.85;;
32228;SDS011;18717;48.034;11.186;2023-03-24T14:26:07;9.82;;;9.32;;
32228;SDS011;18717;48.034;11.186;2023-03-24T14:28:38;9.98;;;9.48;;
32228;SDS011;18717;48.034;11.186;2023-03-24T14:31:08;10.00;;;9.50;;
32228;SDS011;18717;48.034;11.186;2023-03-24T14:33:38;9.98;;;9.52;;
32228;SDS011;18717;48.034;11.186;2023-03-24T14:36:07;9.60;;;9.00;;
32228;SDS011;18717;48.034;11.186;2023-03-24T14:38:40;9.73;;;9.25;;
32228;SDS011;18717;48.034;11.186;2023-03-24T14:41:11;10.13;;;9.55;;
32228;SDS011;18717;48.034;11.186;2023-03-24T14:43:54;10.43;;;9.93;;
32228;SDS011;18717;48.034;11.186;2023-03-24T14:46:39;9.32;;;8.93;;
32228;SDS011;18717;48.034;11.186;2023-03-24T14:49:19;9.63;;;9.23;;
32228;SDS011;18717;48.034;11.186;2023-03-24T14:51:51;10.05;;;9.52;;
32228;SDS011;18717;48.034;11.186;2023-03-24T14:54:26;8.95;;;8.55;;
32228;SDS011;18717;48.034;11.186;2023-03-24T14:56:56;10.85;;;9.95;;
32228;SDS011;18717;48.034;11.186;2023-03-24T14:59:36;9.80;;;9.15;;